createdAt,value
2019-04-26T00:00:50.888Z,92613.16
2019-04-26T00:03:24.452Z,92680.77
2019-04-26T00:05:55.485Z,92741.33
2019-04-26T00:08:25.883Z,92773.88
2019-04-26T00:11:00.267Z,92797.20
2019-04-26T00:13:49.655Z,92807.83
2019-04-26T00:16:27.056Z,92830.69
2019-04-26T00:18:56.836Z,92850.62
2019-04-26T00:21:26.639Z,92966.42
2019-04-26T00:23:57.776Z,92954.59
2019-04-26T00:26:29.377Z,92954.01
2019-04-26T00:28:59.159Z,92955.52
2019-04-26T00:31:30.812Z,92935.37
2019-04-26T00:34:00.459Z,92956.00
2019-04-26T00:36:30.583Z,92993.11
2019-04-26T00:39:00.425Z,93063.22
2019-04-26T00:41:31.789Z,93067.38
2019-04-26T00:44:01.619Z,93062.88
2019-04-26T00:46:32.586Z,93055.99
2019-04-26T00:49:06.843Z,93082.53
2019-04-26T00:51:36.986Z,93101.25
2019-04-26T00:54:06.806Z,93143.06
2019-04-26T00:56:36.793Z,93163.23
2019-04-26T00:59:07.115Z,93174.69
2019-04-26T01:01:39.143Z,93178.55
2019-04-26T01:04:08.903Z,93201.34
2019-04-26T01:06:40.257Z,93198.64
2019-04-26T01:09:12.347Z,93172.56
2019-04-26T01:11:42.210Z,93176.59
2019-04-26T01:14:13.195Z,93243.00
2019-04-26T01:16:43.725Z,93218.73
2019-04-26T01:19:18.561Z,93250.42
2019-04-26T01:21:53.366Z,93256.63
2019-04-26T01:24:25.386Z,93234.81
2019-04-26T01:26:59.046Z,93252.41
2019-04-26T01:29:30.884Z,93243.39
2019-04-26T01:32:08.412Z,93277.16
2019-04-26T01:37:31.523Z,93303.10
2019-04-26T01:40:05.972Z,93305.30
2019-04-26T01:42:41.025Z,93337.36
2019-04-26T01:45:22.394Z,93334.22
2019-04-26T01:47:54.807Z,93324.30
2019-04-26T01:50:25.295Z,93303.14
2019-04-26T01:52:57.111Z,93290.00
2019-04-26T01:55:29.283Z,93296.78
2019-04-26T01:58:01.122Z,93314.45
2019-04-26T02:00:38.247Z,93330.80
2019-04-26T02:03:09.712Z,93352.81
2019-04-26T02:05:39.449Z,93388.30
2019-04-26T02:08:09.236Z,93370.03
2019-04-26T02:10:39.003Z,93365.50
2019-04-26T02:13:11.390Z,93357.77
2019-04-26T02:15:42.055Z,93342.30
2019-04-26T02:18:13.958Z,93349.43
2019-04-26T02:20:59.758Z,93336.92
2019-04-26T02:23:35.364Z,93324.84
2019-04-26T02:26:24.952Z,93302.87
2019-04-26T02:28:55.190Z,93272.04
2019-04-26T02:31:26.770Z,93238.92
2019-04-26T02:33:56.999Z,93214.45
2019-04-26T02:36:47.861Z,93200.08
2019-04-26T02:39:06.403Z,93237.80
2019-04-26T02:41:40.831Z,93251.45
2019-04-26T02:44:13.706Z,93239.20
2019-04-26T02:47:02.604Z,93282.19
2019-04-26T02:49:44.508Z,93285.11
2019-04-26T02:52:20.198Z,93291.98
2019-04-26T02:54:55.820Z,93295.05
2019-04-26T02:57:36.503Z,93287.48
2019-04-26T03:00:14.526Z,93290.91
2019-04-26T03:02:48.073Z,93267.69
2019-04-26T03:05:18.073Z,93258.78
2019-04-26T03:07:54.029Z,93236.61
2019-04-26T03:10:28.528Z,93234.31
2019-04-26T03:13:00.401Z,93244.59
2019-04-26T03:15:38.920Z,93235.05
2019-04-26T03:18:31.670Z,93233.23
2019-04-26T03:21:11.322Z,93212.55
2019-04-26T03:23:59.114Z,93219.78
2019-04-26T03:26:37.446Z,93280.19
2019-04-26T03:29:26.176Z,93275.45
2019-04-26T03:31:59.830Z,93284.61
2019-04-26T03:34:50.757Z,93259.81
2019-04-26T03:37:36.563Z,93253.30
2019-04-26T03:40:44.678Z,93255.75
2019-04-26T03:43:36.994Z,93270.00
2019-04-26T03:46:21.719Z,93299.55
2019-04-26T03:48:57.247Z,93303.45
2019-04-26T03:51:48.215Z,93258.89
2019-04-26T03:54:27.079Z,93245.25
2019-04-26T03:57:07.589Z,93245.39
2019-04-26T03:59:50.677Z,93237.22
2019-04-26T04:02:45.529Z,93204.69
2019-04-26T04:05:25.071Z,93168.67
2019-04-26T04:07:59.819Z,93163.78
2019-04-26T04:10:37.400Z,93113.98
2019-04-26T04:13:20.527Z,93141.08
2019-04-26T04:15:51.779Z,93124.94
2019-04-26T04:18:26.056Z,93105.70
2019-04-26T04:21:10.198Z,93047.20
2019-04-26T04:23:47.194Z,92998.54
2019-04-26T04:26:20.388Z,92957.99
2019-04-26T04:29:18.979Z,92903.70
2019-04-26T04:32:01.208Z,92858.22
2019-04-26T04:34:37.186Z,92885.73
2019-04-26T04:37:07.650Z,92876.36
2019-04-26T04:39:47.837Z,92867.77
2019-04-26T04:42:38.208Z,92844.08
2019-04-26T04:45:57.527Z,92794.48
2019-04-26T04:48:41.161Z,92726.41
2019-04-26T04:51:49.902Z,92706.63
2019-04-26T04:54:29.050Z,92752.61
2019-04-26T04:57:25.595Z,92821.45
2019-04-26T05:00:17.417Z,92821.86
2019-04-26T05:03:12.827Z,92855.20
2019-04-26T05:06:07.367Z,92881.38
2019-04-26T05:08:36.832Z,92911.48
2019-04-26T05:11:12.415Z,92952.38
2019-04-26T05:13:57.330Z,92968.41
2019-04-26T05:16:46.462Z,93016.36
2019-04-26T05:19:46.838Z,93023.20
2019-04-26T05:22:49.846Z,93043.23
2019-04-26T05:25:51.898Z,93058.34
2019-04-26T05:28:38.450Z,93071.89
2019-04-26T05:31:22.014Z,93094.26
2019-04-26T05:34:19.703Z,93153.42
2019-04-26T05:36:59.190Z,93252.64
2019-04-26T05:39:37.706Z,93249.18
2019-04-26T05:42:24.290Z,93201.63
2019-04-26T05:45:33.706Z,93165.16
2019-04-26T05:48:13.550Z,93161.29
2019-04-26T05:51:21.014Z,93146.41
2019-04-26T05:54:15.675Z,93110.25
2019-04-26T05:57:24.121Z,93053.88
2019-04-26T06:00:25.945Z,93021.66
2019-04-26T06:03:12.489Z,93003.53
2019-04-26T06:05:52.590Z,92964.69
2019-04-26T06:08:37.997Z,92915.22
2019-04-26T06:11:13.326Z,92857.09
2019-04-26T06:14:00.186Z,92850.63
2019-04-26T06:17:05.462Z,92890.15
2019-04-26T06:19:43.044Z,92889.30
2019-04-26T06:22:27.727Z,92841.05
2019-04-26T06:25:11.463Z,92819.63
2019-04-26T06:27:48.539Z,92740.69
2019-04-26T06:30:24.353Z,92642.25
2019-04-26T06:33:06.219Z,92590.59
2019-04-26T06:35:38.408Z,92498.77
2019-04-26T06:38:43.998Z,92454.12
2019-04-26T06:41:40.277Z,92338.38
2019-04-26T06:44:20.368Z,92296.41
2019-04-26T06:47:01.882Z,92060.63
2019-04-26T06:50:10.059Z,92095.61
2019-04-26T06:52:54.450Z,92108.63
2019-04-26T06:55:33.799Z,92037.38
2019-04-26T06:58:23.536Z,91863.28
2019-04-26T07:01:20.456Z,91775.11
2019-04-26T07:04:29.918Z,91805.12
2019-04-26T07:07:19.658Z,91765.07
2019-04-26T07:10:04.349Z,91829.06
2019-04-26T07:12:42.033Z,92009.62
2019-04-26T07:15:46.778Z,92063.81
2019-04-26T07:18:22.139Z,92003.53
2019-04-26T07:21:09.030Z,92062.30
2019-04-26T07:23:45.918Z,91998.70
2019-04-26T07:26:52.106Z,91913.84
2019-04-26T07:29:28.915Z,91823.69
2019-04-26T07:32:11.545Z,91724.36
2019-04-26T07:35:09.313Z,91683.33
2019-04-26T07:37:56.183Z,91594.29
2019-04-26T07:40:44.674Z,91421.70
2019-04-26T07:43:31.354Z,91341.78
2019-04-26T07:46:37.662Z,91326.20
2019-04-26T07:49:29.936Z,91375.73
2019-04-26T07:52:36.433Z,91307.14
2019-04-26T07:55:15.244Z,91223.53
2019-04-26T07:58:21.095Z,91287.94
2019-04-26T08:01:05.409Z,91315.19
2019-04-26T08:03:55.804Z,91194.27
2019-04-26T08:06:31.240Z,91057.66
2019-04-26T08:09:25.068Z,90839.47
2019-04-26T08:11:47.341Z,90935.91
2019-04-26T08:14:19.911Z,90847.50
2019-04-26T08:17:12.507Z,90733.61
2019-04-26T08:19:57.578Z,90597.78
2019-04-26T08:22:28.673Z,90394.63
2019-04-26T08:24:58.479Z,90135.36
2019-04-26T08:27:29.988Z,89992.67
2019-04-26T08:30:03.387Z,89945.88
2019-04-26T08:32:36.351Z,89966.18
2019-04-26T08:35:15.995Z,89989.18
2019-04-26T08:37:49.876Z,89914.45
2019-04-26T08:40:28.270Z,89728.56
2019-04-26T08:43:01.743Z,89595.39
2019-04-26T08:45:44.123Z,89445.00
2019-04-26T08:48:31.185Z,89219.63
2019-04-26T08:51:20.530Z,89097.77
2019-04-26T08:53:51.362Z,88898.82
2019-04-26T08:56:29.767Z,88698.74
2019-04-26T08:59:04.483Z,88612.02
2019-04-26T09:01:41.985Z,88368.22
2019-04-26T09:04:17.743Z,88173.66
2019-04-26T09:06:51.572Z,87860.14
2019-04-26T09:09:24.393Z,87544.47
2019-04-26T09:11:59.818Z,87207.22
2019-04-26T09:14:30.797Z,86790.02
2019-04-26T09:17:00.498Z,86480.61
2019-04-26T09:19:31.926Z,86123.03
2019-04-26T09:22:13.361Z,85799.91
2019-04-26T09:24:45.442Z,85204.00
2019-04-26T09:27:17.157Z,84445.20
2019-04-26T09:29:55.807Z,83665.31
2019-04-26T09:32:28.016Z,82965.93
2019-04-26T09:35:02.098Z,82288.89
2019-04-26T09:37:31.804Z,81868.87
2019-04-26T09:40:10.124Z,81752.61
2019-04-26T09:42:52.037Z,81595.61
2019-04-26T09:45:36.674Z,82133.80
2019-04-26T09:48:23.188Z,82611.11
2019-04-26T09:50:54.966Z,82662.69
2019-04-26T09:53:30.166Z,82455.20
2019-04-26T09:55:59.977Z,82451.96
2019-04-26T09:58:32.195Z,82505.34
2019-04-26T10:01:02.556Z,82529.31
2019-04-26T10:03:34.342Z,82276.44
2019-04-26T10:06:04.209Z,82171.48
2019-04-26T10:08:34.024Z,82087.57
2019-04-26T10:11:05.707Z,81980.62
2019-04-26T10:13:41.517Z,81978.30
2019-04-26T10:16:15.740Z,82075.13
2019-04-26T10:18:47.092Z,82217.05
2019-04-26T10:21:18.555Z,82150.81
2019-04-26T10:23:49.282Z,82255.62
2019-04-26T10:26:23.253Z,82364.56
2019-04-26T10:28:53.042Z,82153.14
2019-04-26T10:31:24.498Z,82189.20
2019-04-26T10:33:58.918Z,82146.64
2019-04-26T10:36:30.120Z,82028.92
2019-04-26T10:39:00.127Z,81738.89
2019-04-26T10:41:29.946Z,81342.19
2019-04-26T10:43:59.758Z,81286.95
2019-04-26T10:46:34.017Z,80974.02
2019-04-26T10:49:16.127Z,81017.33
2019-04-26T10:51:50.746Z,80679.72
2019-04-26T10:54:24.135Z,80529.95
2019-04-26T10:56:57.947Z,80662.22
2019-04-26T10:59:31.653Z,80660.05
2019-04-26T11:02:03.101Z,80514.31
2019-04-26T11:04:32.887Z,80671.17
2019-04-26T11:07:04.228Z,80938.45
2019-04-26T11:09:36.619Z,80958.00
2019-04-26T11:12:06.837Z,80777.89
2019-04-26T11:14:36.673Z,80918.55
2019-04-26T11:17:07.237Z,80903.36
2019-04-26T11:19:37.995Z,80808.44
2019-04-26T11:22:08.781Z,80862.42
2019-04-26T11:24:41.048Z,80894.95
2019-04-26T11:27:13.499Z,80667.07
2019-04-26T11:29:53.570Z,80889.86
2019-04-26T11:32:19.893Z,80754.75
2019-04-26T11:34:54.587Z,80916.28
2019-04-26T11:37:24.930Z,80824.77
2019-04-26T11:39:55.057Z,81011.37
2019-04-26T11:42:24.932Z,81296.58
2019-04-26T11:45:05.568Z,81145.70
2019-04-26T11:47:27.675Z,80747.56
2019-04-26T11:49:58.363Z,80363.70
2019-04-26T11:52:32.115Z,79823.24
2019-04-26T11:55:06.740Z,79458.02
2019-04-26T11:57:40.032Z,79022.80
2019-04-26T12:00:11.413Z,78542.73
2019-04-26T12:02:46.295Z,78303.95
2019-04-26T12:05:28.629Z,77987.88
2019-04-26T12:08:03.966Z,78299.69
2019-04-26T12:10:33.772Z,78703.09
2019-04-26T12:13:07.241Z,78955.81
2019-04-26T12:15:43.665Z,79275.50
2019-04-26T12:18:13.163Z,79644.66
2019-04-26T12:20:44.428Z,79944.97
2019-04-26T12:23:20.782Z,79974.75
2019-04-26T12:25:48.447Z,80201.02
2019-04-26T12:28:19.073Z,80120.75
2019-04-26T12:30:54.119Z,79872.77
2019-04-26T12:33:26.078Z,79497.28
2019-04-26T12:35:57.432Z,79036.97
2019-04-26T12:38:29.988Z,78667.30
2019-04-26T12:41:01.049Z,78208.77
2019-04-26T12:43:30.873Z,78075.06
2019-04-26T12:46:08.493Z,77742.42
2019-04-26T12:48:45.963Z,77453.25
2019-04-26T12:51:17.578Z,77315.38
2019-04-26T12:53:51.306Z,77221.02
2019-04-26T12:56:26.734Z,77478.46
2019-04-26T12:58:58.399Z,77905.63
2019-04-26T13:01:29.755Z,78229.69
2019-04-26T13:04:06.801Z,78364.66
2019-04-26T13:06:38.805Z,78570.11
2019-04-26T13:09:21.800Z,78467.03
2019-04-26T13:11:58.166Z,78484.14
2019-04-26T13:14:32.302Z,78487.48
2019-04-26T13:17:12.636Z,78550.61
2019-04-26T13:19:42.388Z,78440.24
2019-04-26T13:22:13.741Z,78315.22
2019-04-26T13:24:43.623Z,78335.43
2019-04-26T13:27:15.107Z,78433.76
2019-04-26T13:29:48.115Z,78371.42
2019-04-26T13:32:17.325Z,77944.63
2019-04-26T13:34:47.838Z,77518.93
2019-04-26T13:37:18.865Z,77170.80
2019-04-26T13:39:51.366Z,77283.00
2019-04-26T13:42:20.585Z,77611.75
2019-04-26T13:44:55.385Z,77837.52
2019-04-26T13:47:26.920Z,78221.39
2019-04-26T13:50:13.128Z,78554.56
2019-04-26T13:52:46.933Z,78973.38
2019-04-26T13:55:17.179Z,79178.13
2019-04-26T13:57:49.516Z,79468.63
2019-04-26T14:00:24.226Z,79593.55
2019-04-26T14:02:54.029Z,79792.05
2019-04-26T14:05:23.847Z,79754.08
2019-04-26T14:07:53.732Z,79703.53
2019-04-26T14:10:23.558Z,79795.66
2019-04-26T14:12:55.676Z,79998.91
2019-04-26T14:15:25.277Z,80406.47
2019-04-26T14:18:00.237Z,80746.94
2019-04-26T14:20:30.508Z,80671.16
2019-04-26T14:23:04.062Z,80597.13
2019-04-26T14:25:55.653Z,80454.33
2019-04-26T14:28:25.518Z,80176.05
2019-04-26T14:30:55.585Z,79893.30
2019-04-26T14:33:27.069Z,79776.31
2019-04-26T14:35:58.881Z,79796.18
2019-04-26T14:38:39.257Z,79730.03
2019-04-26T14:41:04.403Z,79559.31
2019-04-26T14:43:40.846Z,79512.88
2019-04-26T14:46:10.406Z,79330.91
2019-04-26T14:48:44.836Z,79064.53
2019-04-26T14:51:17.226Z,78918.44
2019-04-26T14:53:48.357Z,78944.52
2019-04-26T14:56:18.196Z,78906.17
2019-04-26T14:58:50.275Z,79105.20
2019-04-26T15:01:32.231Z,79357.56
2019-04-26T15:04:20.326Z,79498.89
2019-04-26T15:06:58.110Z,79544.78
2019-04-26T15:09:33.157Z,79505.84
2019-04-26T15:12:03.561Z,79261.42
2019-04-26T15:14:34.411Z,79170.36
2019-04-26T15:17:04.962Z,79247.80
2019-04-26T15:19:35.275Z,79452.70
2019-04-26T15:22:10.504Z,79584.76
2019-04-26T15:24:38.757Z,79848.95
2019-04-26T15:27:09.401Z,80232.54
2019-04-26T15:29:40.376Z,80401.86
2019-04-26T15:32:13.174Z,80663.60
2019-04-26T15:34:45.357Z,80888.93
2019-04-26T15:37:16.223Z,81122.36
2019-04-26T15:39:50.308Z,81369.59
2019-04-26T15:42:40.416Z,81515.88
2019-04-26T15:45:21.958Z,81789.65
2019-04-26T15:47:53.477Z,82041.20
2019-04-26T15:50:24.794Z,82217.86
2019-04-26T15:52:56.312Z,82377.18
2019-04-26T15:55:33.773Z,82556.73
2019-04-26T15:58:02.705Z,82683.57
2019-04-26T16:00:35.284Z,82825.58
2019-04-26T16:03:07.329Z,82926.80
2019-04-26T16:05:36.626Z,83074.84
2019-04-26T16:08:06.406Z,83281.00
2019-04-26T16:10:38.324Z,83455.20
2019-04-26T16:13:18.239Z,83595.64
2019-04-26T16:15:44.755Z,83674.56
2019-04-26T16:18:17.308Z,83769.03
2019-04-26T16:20:48.982Z,83844.56
2019-04-26T16:23:18.835Z,83970.46
2019-04-26T16:25:49.228Z,84052.68
2019-04-26T16:28:27.325Z,84067.54
2019-04-26T16:31:10.961Z,84166.70
2019-04-26T16:33:48.111Z,84287.78
2019-04-26T16:36:19.015Z,84391.14
2019-04-26T16:38:54.350Z,84536.05
2019-04-26T16:41:21.821Z,84589.97
2019-04-26T16:43:57.124Z,84700.77
2019-04-26T16:46:26.959Z,84838.95
2019-04-26T16:49:03.744Z,85021.75
2019-04-26T16:51:29.118Z,85175.59
2019-04-26T16:54:06.150Z,85243.88
2019-04-26T16:56:35.988Z,85381.56
2019-04-26T16:59:05.710Z,85511.10
2019-04-26T17:01:42.293Z,85620.64
2019-04-26T17:04:11.280Z,85778.61
2019-04-26T17:06:45.198Z,85936.00
2019-04-26T17:09:18.416Z,86048.00
2019-04-26T17:11:48.283Z,86167.16
2019-04-26T17:14:18.095Z,86285.04
2019-04-26T17:16:47.910Z,86452.42
2019-04-26T17:19:22.925Z,86748.64
2019-04-26T17:22:00.964Z,86748.64
2019-04-26T17:24:43.856Z,86886.78
2019-04-26T17:27:14.950Z,87004.27
2019-04-26T17:29:47.086Z,87114.48
2019-04-26T17:32:20.210Z,87255.84
2019-04-26T17:34:52.237Z,87371.28
2019-04-26T17:37:26.492Z,87460.34
2019-04-26T17:39:57.724Z,87526.88
2019-04-26T17:42:36.469Z,87628.81
2019-04-26T17:45:06.772Z,87735.93
2019-04-26T17:47:39.920Z,87735.93
2019-04-26T17:50:11.020Z,87740.94
2019-04-26T17:52:44.036Z,87861.30
2019-04-26T17:55:14.929Z,87997.84
2019-04-26T17:57:48.610Z,88110.50
2019-04-26T18:00:21.043Z,88247.53
2019-04-26T18:02:51.536Z,88384.70
2019-04-26T18:05:24.503Z,88467.64
2019-04-26T18:07:58.787Z,88575.30
2019-04-26T18:10:30.587Z,88611.70
2019-04-26T18:13:02.487Z,88714.33
2019-04-26T18:15:39.906Z,88775.51
2019-04-26T18:18:24.879Z,88884.20
2019-04-26T18:21:18.894Z,88993.10
2019-04-26T18:23:52.551Z,89081.27
2019-04-26T18:26:22.421Z,89162.87
2019-04-26T18:28:55.092Z,89224.80
2019-04-26T18:31:28.559Z,89349.52
2019-04-26T18:34:00.611Z,89433.73
2019-04-26T18:36:32.044Z,89525.09
2019-04-26T18:39:03.875Z,89574.34
2019-04-26T18:41:34.865Z,89674.98
2019-04-26T18:44:05.905Z,89756.00
2019-04-26T18:46:40.520Z,89824.76
2019-04-26T18:49:22.582Z,89879.57
2019-04-26T18:51:51.952Z,89931.50
2019-04-26T18:54:28.311Z,90014.59
2019-04-26T18:57:03.216Z,90126.60
2019-04-26T18:59:35.058Z,90184.39
2019-04-26T19:02:05.005Z,90278.17
2019-04-26T19:04:36.946Z,90280.42
2019-04-26T19:07:08.127Z,90531.83
2019-04-26T19:09:56.737Z,90291.60
2019-04-26T19:12:18.420Z,90320.16
2019-04-26T19:15:07.858Z,90387.68
2019-04-26T19:17:52.328Z,90434.93
2019-04-26T19:20:32.321Z,90409.78
2019-04-26T19:23:05.504Z,90408.82
2019-04-26T19:25:41.551Z,90401.16
2019-04-26T19:28:12.664Z,90360.73
2019-04-26T19:30:49.356Z,90343.16
2019-04-26T19:33:22.855Z,90353.25
2019-04-26T19:35:57.394Z,90350.83
2019-04-26T19:38:43.757Z,90362.20
2019-04-26T19:41:12.097Z,90356.20
2019-04-26T19:43:46.179Z,90359.37
2019-04-26T19:46:31.506Z,90395.74
2019-04-26T19:49:18.622Z,90437.66
2019-04-26T19:51:52.231Z,90492.30
2019-04-26T19:54:31.363Z,90533.83
2019-04-26T19:57:03.752Z,90607.23
2019-04-26T19:59:34.674Z,90676.69
2019-04-26T20:02:05.602Z,90780.71
2019-04-26T20:04:35.524Z,90835.08
2019-04-26T20:07:08.297Z,90932.72
2019-04-26T20:09:38.961Z,91015.70
2019-04-26T20:12:08.849Z,91072.66
2019-04-26T20:14:47.184Z,91064.61
2019-04-26T20:17:13.166Z,91088.12
2019-04-26T20:19:42.724Z,91209.99
2019-04-26T20:22:13.637Z,91346.08
2019-04-26T20:24:48.622Z,91376.91
2019-04-26T20:27:26.281Z,91333.81
2019-04-26T20:29:59.313Z,91304.77
2019-04-26T20:32:32.660Z,91227.56
2019-04-26T20:35:13.355Z,91246.65
2019-04-26T20:37:47.367Z,91329.98
2019-04-26T20:40:23.267Z,91381.83
2019-04-26T20:42:57.295Z,91433.87
2019-04-26T20:45:24.402Z,91478.71
2019-04-26T20:47:55.735Z,91552.45
2019-04-26T20:50:28.516Z,91578.70
2019-04-26T20:53:02.184Z,91618.67
2019-04-26T20:55:34.488Z,91652.31
2019-04-26T20:58:08.462Z,91712.06
2019-04-26T21:00:53.498Z,91742.88
2019-04-26T21:03:22.771Z,91744.98
2019-04-26T21:05:46.506Z,91741.59
2019-04-26T21:08:15.230Z,91798.04
2019-04-26T21:10:45.144Z,91872.32
2019-04-26T21:13:14.958Z,91917.16
2019-04-26T21:15:56.399Z,91920.91
2019-04-26T21:18:21.192Z,91907.17
2019-04-26T21:20:52.634Z,91883.17
2019-04-26T21:23:25.073Z,91822.87
2019-04-26T21:25:57.003Z,91772.36
2019-04-26T21:28:33.112Z,91721.13
2019-04-26T21:31:20.988Z,91674.02
2019-04-26T21:33:58.265Z,91594.31
2019-04-26T21:36:46.402Z,91542.70
2019-04-26T21:39:27.303Z,91493.37
2019-04-26T21:41:59.300Z,91492.55
2019-04-26T21:44:29.829Z,91533.06
2019-04-26T21:47:00.376Z,91537.88
2019-04-26T21:49:30.161Z,91475.81
2019-04-26T21:51:59.921Z,91431.41
2019-04-26T21:54:30.673Z,91421.65
2019-04-26T21:57:03.790Z,91427.41
2019-04-26T21:59:40.691Z,91217.91
2019-04-26T22:02:06.750Z,91199.39
2019-04-26T22:04:37.785Z,91255.91
2019-04-26T22:07:09.042Z,91157.17
2019-04-26T22:09:59.268Z,91142.06
2019-04-26T22:12:31.252Z,91321.77
2019-04-26T22:15:19.496Z,91443.06
2019-04-26T22:17:50.816Z,91571.03
2019-04-26T22:20:29.084Z,91504.37
2019-04-26T22:23:00.150Z,91727.98
2019-04-26T22:25:33.243Z,91836.02
2019-04-26T22:28:03.469Z,91969.48
2019-04-26T22:30:34.528Z,91957.84
2019-04-26T22:33:04.969Z,92072.59
2019-04-26T22:35:34.865Z,92087.78
2019-04-26T22:38:07.013Z,92204.33
2019-04-26T22:40:37.746Z,92321.52
2019-04-26T22:43:16.322Z,92247.36
2019-04-26T22:45:55.489Z,92352.10
2019-04-26T22:48:33.935Z,92397.77
2019-04-26T22:51:04.732Z,92514.05
2019-04-26T22:53:35.546Z,92579.09
2019-04-26T22:56:07.874Z,92558.99
2019-04-26T22:58:37.937Z,92613.97
2019-04-26T23:01:08.309Z,92697.52
2019-04-26T23:03:46.326Z,92757.23
2019-04-26T23:06:15.373Z,92754.20
2019-04-26T23:08:46.942Z,92828.58
2019-04-26T23:11:20.432Z,92853.87
2019-04-26T23:13:56.139Z,92860.42
2019-04-26T23:16:28.359Z,92884.47
2019-04-26T23:19:15.336Z,92890.38
2019-04-26T23:21:52.910Z,92876.65
2019-04-26T23:24:19.631Z,92882.81
2019-04-26T23:26:49.444Z,92893.80
2019-04-26T23:29:19.502Z,92934.41
2019-04-26T23:31:51.007Z,92996.28
2019-04-26T23:34:22.852Z,93014.69
2019-04-26T23:36:54.162Z,92996.18
2019-04-26T23:39:24.691Z,93042.78
2019-04-26T23:41:55.574Z,93085.68
2019-04-26T23:44:26.146Z,93056.95
2019-04-26T23:47:01.132Z,93092.12
2019-04-26T23:49:27.914Z,93098.36
2019-04-26T23:51:57.579Z,93136.48
2019-04-26T23:54:28.116Z,93170.89
2019-04-26T23:56:59.321Z,93206.94
2019-04-26T23:59:31.119Z,93236.98
